AirNav   Air Wisconsin pilot careers
 
 799 users online  

0G7 Finger Lakes Regional Airport
Seneca Falls, New York, USA

GOING TO SENECA FALLS?


FAA INFORMATION EFFECTIVE 24 MAY 2018

Location

FAA Identifier: 0G7
Lat/Long: 42-53-00.8000N / 076-46-52.2000W
42-53.013333N / 076-46.870000W
42.8835556 / -76.7811667
(estimated)
Elevation: 491.8 ft. / 149.9 m (surveyed)
Variation: 12W (1985)
From city: 2 miles SE of SENECA FALLS, NY
Time zone: UTC -4 (UTC -5 during Standard Time)
Zip code: 13148

Airport Operations

Airport use: Open to the public
Activation date: 06/1943
Control tower: no
ARTCC: BOSTON CENTER
FSS: BUFFALO FLIGHT SERVICE STATION
NOTAMs facility: BUF (NOTAM-D service available)
Attendance: MON-FRI 0800-1600, ALL SAT-SUN 0800-1500
Wind indicator: lighted
Segmented circle: yes
Lights: ACTVT MIRL & REIL RY 01/19 - CTAF.
Beacon: white-green (lighted land airport)
Operates sunset to sunrise.
Landing fee: yes, $50 LANDING FEE FOR JETS AND TURBO PROPS

Airport Communications

CTAF/UNICOM: 122.8
WX AWOS-3: 120.0 (315-568-5362)
ELMIRA APPROACH: 124.3 SW-SE 119.55 W-NW 126.125 E-NE
ELMIRA DEPARTURE: 126.125
IC: 124.3 SW-SE 119.55 W-NW 126.125 E-NE
WX AWOS-3P at 6B9 (15 nm E): 120.125 (315-685-5790)
WX ASOS at PEO (19 nm SW): 121.175 (315-536-4102)
  • CD THRU FLT SVCS 1-888-766-8267.
  • APCH SVC PRVDD BY NEW YORK ARTCC ON FREQS 133.35/372.0 (SAYRE RCAG) WHEN ELMIRA APCH CTL CLSD.

Nearby radio navigation aids

VOR radial/distance  VOR name  Freq  Var
ITHr339/27.3ITHACA VOR/DME111.8010W
SYRr248/30.3SYRACUSE VORTAC117.0011W

 
NDB name  Hdg/Dist  Freq  Var  ID
PENN YAN052/18.826012WPYA .--. -.-- .-
ALPINE011/38.724512WALP .- .-.. .--.

Airport Services

Fuel available: 100LL JET-A
Parking: hangars and tiedowns
Airframe service: MAJOR
Powerplant service: MAJOR
Bottled oxygen: NONE
Bulk oxygen: NONE

Runway Information

Runway 1/19

Dimensions: 4592 x 75 ft. / 1400 x 23 m
Surface: asphalt, in good condition
Weight bearing capacity: 
Single wheel: 12.5
Double wheel: 30.0
Runway edge lights: medium intensity
RUNWAY 1  RUNWAY 19
Latitude: 42-52.611355N42-53.364773N
Longitude: 076-46.888417W076-46.970995W
Elevation: 490.7 ft.481.6 ft.
Traffic pattern: leftleft
Runway heading: 007 magnetic, 355 true187 magnetic, 175 true
Displaced threshold: 392 ft.no
Declared distances: TORA:4592 TODA:4592 ASDA:4592 LDA:4199TORA:4592 TODA:4592 ASDA:4592 LDA:4292
Markings: nonprecision, in good conditionbasic, in good condition
Visual slope indicator: 2-light PAPI on left (3.00 degrees glide path)2-light PAPI on left (3.00 degrees glide path)
PAPI RY 19 OTS INDEFLY.
Runway end identifier lights: yesyes
REIL RY19 OTS INDEFLY.
Touchdown point: yes, no lightsyes, no lights
Obstructions: none
RWY 01 HAS +15 FT ROAD , 97 FT FROM RWY THLD. 32:1 APCH SLOPE TO DISPLACED THLD.
15 ft. road, 503 ft. from runway, 272 ft. left and right of centerline, 20:1 slope to clear

Runway 11/29

Dimensions: 1850 x 60 ft. / 564 x 18 m
Surface: turf, in good condition
RUNWAY 11  RUNWAY 29
Latitude: 42-53.092798N42-53.059662N
Longitude: 076-46.927987W076-46.516285W
Elevation: 488.9 ft.465.7 ft.
Gradient: 1.3% UP1.2%
Traffic pattern: leftleft
Runway heading: 108 magnetic, 096 true288 magnetic, 276 true
Runway end identifier lights: nono
Touchdown point: yes, no lightsyes, no lights
Obstructions: 44 ft. trees, 472 ft. from runway, 118 ft. left of centerline, 10:1 slope to clear51 ft. trees, 88 ft. from runway, 82 ft. right of centerline, 1:1 slope to clear
RY 29 HAS +17 FT ROAD, 50 FT FM RY BEG, OB.

Airport Ownership and Management from official FAA records

Ownership: Publicly-owned
Owner: SENECA COUNTY
1 DEPRONIO DR
WATERLOO, NY 13165
Phone 315-539-5655
Manager: ALLEN G. STAFF
2727 MARTIN RD
SENECA FALLS, NY 13148
Phone 315-568-0110

Airport Operational Statistics

Aircraft based on the field: 21
Single engine airplanes: 17
Multi engine airplanes: 3
Helicopters: 1
    
Aircraft operations: avg 35/day *
77% local general aviation
22% transient general aviation
<1% military
* for 12-month period ending 09 September 2015

Additional Remarks

MEDIVAC HEL FLT SERVICE ON ARPT; MONITOR CTAF FOR OPS.

Instrument Procedures

NOTE: All procedures below are presented as PDF files. If you need a reader for these files, you should download the free Adobe Reader.

NOT FOR NAVIGATION. Please procure official charts for flight.
FAA instrument procedures published for use from 24 May 2018 at 0901Z to 21 June 2018 at 0900Z.

 
IAPs - Instrument Approach Procedures
RNAV (GPS) RWY 01   download (244KB)
RNAV (GPS) RWY 19   download (220KB)
NOTE: Special Take-Off Minimums/Departure Procedures apply   download

Other nearby airports with instrument procedures:

6B9 - Skaneateles Aero Drome (15 nm E)
B16 - Whitfords Airport (16 nm NE)
KPEO - Penn Yan Airport (19 nm SW)
KIUA - Canandaigua Airport (24 nm W)
KSDC - Williamson-Sodus Airport (26 nm NW)
 
Loc | Ops | Rwys | IFR | FBO | Links
Com | Nav | Svcs | Stats | Notes

AirNav Hotels Sweepstakes
 
Area around 0G7 (Finger Lakes Regional Airport)
 
Road maps at: MapQuest Bing Google
 
Aerial photo
WARNING: Photo may not be current or correct
Aerial photo of 0G7 (Finger Lakes Regional Airport)
Do you have a better or more recent aerial photo of Finger Lakes Regional Airport that you would like to share? If so, please send us your photo.

 
Sectional chart

 
Airport distance calculator
Flying to Finger Lakes Regional Airport? Find the distance to fly.

From to 0G7

Sunrise and sunset
Times for 24-May-2018
 Local
(UTC-4)
 Zulu
(UTC)
Morning civil twilight05:0409:04
Sunrise05:3709:37
Sunset20:3100:31
Evening civil twilight21:0401:04

Current date and time
Zulu (UTC)  25-May-2018 02:59:33
Local (UTC-4)  24-May-2018 22:59:33
 
METAR
KPEO 
18nm SW 
250253Z AUTO 20006KT 10SM CLR 20/06 A3008 RMK AO2 SLP182 T02000061 58003
KSDC 
26nm NW 
250235Z AUTO 23005KT 10SM CLR 18/10 A3006 RMK AO2
KITH 
29nm SE 
250156Z 00000KT 10SM CLR 14/13 A3010 RMK AO2 SLP192 T01440128
KN03 
30nm SE 
250235Z AUTO 00000KT 10SM CLR 13/11 A3010 RMK AO2
KFZY 
33nm NE 
250254Z AUTO 20003KT 10SM CLR 14/11 A3003 RMK AO2 SLP170 60000 T01440111 56005
KSYR 
33nm NE 
250254Z 00000KT 10SM FEW200 18/11 A3003 RMK AO2 SLP165 T01830111 56005
TAF
KITH 
29nm SE 
241735Z 2418/2518 30010KT P6SM SKC FM250000 VRB03KT P6SM SKC FM251400 25010KT P6SM SKC
KSYR 
33nm NE 
241735Z 2418/2518 29008KT P6SM SKC FM250000 VRB03KT P6SM SKC FM251400 25010KT P6SM SKC
NOTAMs
Click for the latest NOTAMs
NOTAMs are issued by the DoD/FAA and will open in a separate window not controlled by AirNav.

 

 
 

FBO, Fuel Providers, and Aircraft Ground Support

  
 Business Name 
 
 Contact 
 
 Services / Description 
 
Fuel Prices
 
Comments
  
Finger Lakes Regional Airport 315-568-0110
no information available

If you are affiliated with Finger Lakes Regional Airport and would like to show here your services, contact info, web link, logo, and more, click here
100LL Jet A
FS --- $3.75 
SS $4.75 $3.75 
 Updated 21-May-2018
 
   1 read write
FS=Full service
SS=Self service
Update Fuel Prices
 

Would you like to see your business listed on this page?

 If your business provides an interesting product or service to pilots, flight crews, aircraft, or users of the Finger Lakes Regional Airport, you should consider listing it here.  To start the listing process, click on the button below
 
Add a business
 

Other Pages about Finger Lakes Regional Airport

Update a link
 
Copyright © AirNav, LLC. All rights reserved. Privacy Policy  Contact